Time;durP1;ratioP1;P1;durP2;ratioP2;P2;SDS_P1;SDS_P2;PMS_P1;PMS_P2;Temp;Humidity;BMP_temperature;BMP_pressure;BME280_temperature;BME280_humidity;BME280_pressure;Samples;Min_cycle;Max_cycle;Signal;HPM_P1;HPM_P2
2023/03/20 00:01:28;;;;;;;13.52;7.32;;;;;;;10.54;80.69;100186.84;4988455;28;20038;-89
2023/03/20 00:03:56;;;;;;;15.23;6.95;;;;;;;10.57;80.93;100185.75;4986148;28;20518;-89
2023/03/20 00:06:25;;;;;;;18.45;7.97;;;;;;;10.54;80.94;100184.19;4980522;28;20504;-88
2023/03/20 00:08:53;;;;;;;13.65;7.47;;;;;;;10.58;80.84;100182.97;5014258;28;20045;-89
2023/03/20 00:11:27;;;;;;;15.57;8.70;;;;;;;10.40;81.15;100182.66;5021276;28;20496;-89
2023/03/20 00:14:04;;;;;;;15.40;7.85;;;;;;;10.47;81.06;100180.34;5009784;28;20562;-88
2023/03/20 00:16:33;;;;;;;16.88;8.75;;;;;;;10.49;80.74;100191.69;5014363;28;20088;-88
2023/03/20 00:19:02;;;;;;;15.02;8.10;;;;;;;10.55;80.36;100183.19;4970730;28;20600;-88
2023/03/20 00:21:29;;;;;;;18.85;8.85;;;;;;;10.46;80.38;100189.28;4994927;28;20041;-88
2023/03/20 00:23:56;;;;;;;22.27;9.18;;;;;;;10.41;80.83;100194.13;4992041;28;20033;-88
2023/03/20 00:26:27;;;;;;;16.55;8.52;;;;;;;10.37;81.05;100190.88;4997340;28;20147;-88
2023/03/20 00:28:55;;;;;;;20.98;8.15;;;;;;;10.38;81.09;100203.19;4966147;28;20057;-89
2023/03/20 00:31:27;;;;;;;12.32;6.82;;;;;;;10.28;80.48;100199.59;5000777;28;20046;-88
2023/03/20 00:33:56;;;;;;;10.70;7.07;;;;;;;10.30;81.25;100212.72;4994992;28;20523;-89
2023/03/20 00:36:23;;;;;;;18.35;8.02;;;;;;;10.34;81.19;100206.22;5011771;28;20524;-88
2023/03/20 00:38:50;;;;;;;15.63;7.63;;;;;;;10.33;81.58;100205.38;5012189;28;20061;-89
2023/03/20 00:41:26;;;;;;;13.43;8.15;;;;;;;10.29;81.77;100216.38;4986435;28;20489;-87
2023/03/20 00:43:59;;;;;;;20.20;9.38;;;;;;;10.35;82.19;100215.84;5006459;28;20049;-88
2023/03/20 00:46:26;;;;;;;17.38;9.25;;;;;;;10.35;81.95;100210.53;5000377;28;20060;-89
2023/03/20 00:48:53;;;;;;;18.02;8.65;;;;;;;10.35;81.32;100199.94;5022199;28;20096;-89
2023/03/20 00:51:21;;;;;;;16.88;7.55;;;;;;;10.36;81.69;100207.78;5016559;28;20695;-89
2023/03/20 00:53:48;;;;;;;18.95;8.98;;;;;;;10.37;82.19;100201.47;5021141;28;20073;-89
2023/03/20 00:56:31;;;;;;;14.65;7.97;;;;;;;10.32;81.35;100203.66;5008481;28;20067;-89
2023/03/20 00:58:59;;;;;;;15.75;7.35;;;;;;;10.27;81.63;100211.13;4911430;28;20055;-88
2023/03/20 01:01:27;;;;;;;14.95;7.00;;;;;;;10.26;81.70;100203.31;4930707;28;20042;-89
2023/03/20 01:03:54;;;;;;;13.07;6.70;;;;;;;10.25;82.05;100207.75;4931894;28;20487;-89
2023/03/20 01:06:21;;;;;;;18.80;8.20;;;;;;;10.31;82.21;100195.84;4897055;29;20451;-88
2023/03/20 01:08:48;;;;;;;16.45;8.60;;;;;;;10.41;82.14;100196.78;4929684;28;20062;-89
2023/03/20 01:11:20;;;;;;;14.15;8.00;;;;;;;10.38;81.83;100203.19;4930480;28;20082;-88
2023/03/20 01:13:47;;;;;;;13.23;6.85;;;;;;;10.42;81.77;100201.94;4931877;28;20047;-88
2023/03/20 01:16:23;;;;;;;16.48;7.70;;;;;;;10.34;81.89;100200.91;4932667;28;20054;-88
2023/03/20 01:18:50;;;;;;;15.02;8.43;;;;;;;10.45;82.06;100205.34;4897601;28;20458;-88
2023/03/20 01:21:18;;;;;;;19.67;8.80;;;;;;;10.45;82.53;100211.47;4934745;28;20049;-89
2023/03/20 01:23:45;;;;;;;17.60;8.88;;;;;;;10.50;82.34;100208.44;4919855;28;20557;-89
2023/03/20 01:26:41;;;;;;;19.80;11.02;;;;;;;10.32;83.67;100205.50;4936998;28;20050;-85
2023/03/20 01:29:26;;;;;;;16.98;8.82;;;;;;;10.29;83.79;100203.94;4919897;28;20093;-89
2023/03/20 01:31:52;;;;;;;23.45;11.13;;;;;;;10.40;83.68;100211.84;4967409;28;20405;-88
2023/03/20 01:34:22;;;;;;;20.33;9.65;;;;;;;10.48;83.32;100197.97;5013082;28;20037;-89
2023/03/20 01:36:51;;;;;;;17.48;10.10;;;;;;;10.41;83.89;100205.59;5016138;28;20401;-88
2023/03/20 01:39:20;;;;;;;22.65;9.93;;;;;;;10.45;84.22;100211.47;5002856;28;20081;-89
2023/03/20 01:41:48;;;;;;;20.10;10.35;;;;;;;10.49;83.91;100218.22;4968221;28;20445;-88
2023/03/20 01:44:21;;;;;;;23.85;10.82;;;;;;;10.47;84.19;100214.84;5005412;28;20443;-89
2023/03/20 01:46:52;;;;;;;18.15;9.35;;;;;;;10.45;84.00;100216.78;5011371;28;20114;-89
2023/03/20 01:49:20;;;;;;;17.00;9.00;;;;;;;10.50;83.59;100216.41;4996065;28;20041;-88
2023/03/20 01:51:50;;;;;;;19.40;9.27;;;;;;;10.39;83.95;100215.47;5012844;28;20136;-88
2023/03/20 01:54:24;;;;;;;16.08;8.68;;;;;;;10.33;84.21;100212.47;4998208;28;20038;-89
2023/03/20 01:57:05;;;;;;;18.15;9.23;;;;;;;10.43;84.18;100216.94;4974104;28;20041;-89
2023/03/20 01:59:32;;;;;;;17.48;9.88;;;;;;;10.41;84.66;100210.91;4987980;28;20089;-89
2023/03/20 02:01:59;;;;;;;18.30;9.63;;;;;;;10.47;84.82;100214.84;4967258;28;20038;-88
2023/03/20 02:04:33;;;;;;;24.70;11.50;;;;;;;10.41;85.31;100220.69;5018478;28;20048;-88
2023/03/20 02:07:07;;;;;;;18.02;10.30;;;;;;;10.46;84.40;100223.81;4934759;28;20050;-88
2023/03/20 02:09:40;;;;;;;16.38;9.10;;;;;;;10.46;84.27;100236.22;4990791;28;20049;-89
2023/03/20 02:12:13;;;;;;;21.90;9.55;;;;;;;10.38;84.50;100235.03;4993713;28;20079;-88
2023/03/20 02:14:40;;;;;;;16.98;9.38;;;;;;;10.49;84.01;100235.97;5006888;28;20055;-87
2023/03/20 02:17:20;;;;;;;22.13;9.38;;;;;;;10.46;84.42;100230.91;4984324;28;20044;-88
2023/03/20 02:20:04;;;;;;;16.55;9.25;;;;;;;10.35;84.74;100237.09;4995456;28;20052;-89
2023/03/20 02:22:52;;;;;;;16.27;8.82;;;;;;;10.23;85.05;100228.28;4977160;28;20216;-87
2023/03/20 02:25:47;;;;;;;20.42;8.88;;;;;;;10.28;84.96;100230.59;4989177;28;20535;-88
2023/03/20 02:28:20;;;;;;;23.50;9.70;;;;;;;10.40;84.82;100238.41;4956244;28;20045;-88
2023/03/20 02:31:42;;;;;;;20.42;10.15;;;;;;;10.32;86.40;100229.38;4993157;28;20405;-89
2023/03/20 02:34:37;;;;;;;22.77;11.27;;;;;;;10.31;86.88;100219.75;4914388;29;20467;-89
2023/03/20 02:37:22;;;;;;;17.88;9.88;;;;;;;10.31;86.05;100227.72;4941698;28;20045;-88
2023/03/20 02:40:01;;;;;;;18.70;10.07;;;;;;;10.36;86.10;100226.34;4995956;28;20045;-89
2023/03/20 02:42:36;;;;;;;20.98;10.25;;;;;;;10.42;85.52;100223.19;4971211;28;20053;-88
2023/03/20 02:45:40;;;;;;;23.52;9.98;;;;;;;10.43;85.23;100226.69;4980606;28;20108;-88
2023/03/20 02:48:31;;;;;;;20.02;9.05;;;;;;;10.36;85.74;100222.88;4944199;28;20056;-88
2023/03/20 02:51:17;;;;;;;25.25;10.35;;;;;;;10.30;86.00;100224.19;4949032;28;20051;-89
2023/03/20 02:53:51;;;;;;;18.17;10.25;;;;;;;10.45;85.32;100221.25;4987288;28;20576;-88
2023/03/20 02:56:39;;;;;;;19.05;9.68;;;;;;;10.26;86.15;100225.38;4984663;28;20072;-88
2023/03/20 02:59:25;;;;;;;19.70;10.13;;;;;;;10.34;85.82;100230.09;4991445;28;20057;-89
2023/03/20 03:01:57;;;;;;;23.27;11.20;;;;;;;10.39;86.06;100230.56;4990486;28;20486;-89
2023/03/20 03:04:32;;;;;;;30.13;11.32;;;;;;;10.43;85.94;100224.03;4997987;28;20513;-88
2023/03/20 03:07:02;;;;;;;25.85;11.77;;;;;;;10.41;86.49;100226.81;4986582;28;20059;-89
2023/03/20 03:09:32;;;;;;;21.38;11.60;;;;;;;10.44;86.44;100228.38;4956901;28;20070;-89
2023/03/20 03:12:03;;;;;;;28.60;12.52;;;;;;;10.43;87.08;100227.56;4988056;28;20517;-89
2023/03/20 03:14:48;;;;;;;29.88;13.85;;;;;;;10.42;87.30;100238.28;4973046;28;20053;-89
2023/03/20 03:17:17;;;;;;;25.60;11.57;;;;;;;10.53;86.70;100238.28;4937764;28;20609;-87
2023/03/20 03:19:54;;;;;;;28.55;11.65;;;;;;;10.49;87.13;100231.50;4982947;28;20049;-89
2023/03/20 03:22:21;;;;;;;25.73;12.48;;;;;;;10.54;86.49;100228.47;4956584;28;20550;-88
2023/03/20 03:24:51;;;;;;;28.10;12.68;;;;;;;10.53;86.56;100232.97;4975451;28;20056;-88
2023/03/20 03:27:22;;;;;;;25.38;12.27;;;;;;;10.51;87.34;100234.06;4960491;28;20042;-87
2023/03/20 03:29:53;;;;;;;22.15;12.43;;;;;;;10.47;87.03;100236.09;4970896;28;20057;-86
2023/03/20 03:32:36;;;;;;;22.55;11.05;;;;;;;10.40;87.54;100240.22;4976805;28;20052;-88
2023/03/20 03:35:07;;;;;;;27.15;12.70;;;;;;;10.49;86.97;100236.81;4972320;28;20058;-89
2023/03/20 03:37:58;;;;;;;27.90;11.32;;;;;;;10.43;88.09;100239.97;4973882;28;20050;-89
2023/03/20 03:40:40;;;;;;;23.85;11.50;;;;;;;10.43;88.36;100242.59;4948576;28;20049;-88
2023/03/20 03:43:15;;;;;;;22.92;10.82;;;;;;;10.47;88.10;100232.59;4977925;28;20100;-89
2023/03/20 03:45:47;;;;;;;22.83;12.20;;;;;;;10.51;87.95;100240.19;4993997;28;20057;-88
2023/03/20 03:48:22;;;;;;;24.25;11.70;;;;;;;10.50;88.58;100232.34;5025538;28;20488;-89
2023/03/20 03:50:59;;;;;;;23.52;11.52;;;;;;;10.43;88.79;100237.31;4982048;28;20092;-89
2023/03/20 03:53:30;;;;;;;20.08;11.18;;;;;;;10.54;88.35;100236.44;4964942;28;20041;-89
2023/03/20 03:56:01;;;;;;;23.05;11.40;;;;;;;10.52;88.61;100238.38;4997379;28;20442;-89
2023/03/20 03:58:35;;;;;;;22.42;10.80;;;;;;;10.52;88.40;100236.56;5008290;28;20048;-88
2023/03/20 04:01:04;;;;;;;20.02;11.32;;;;;;;10.54;88.63;100233.78;4957160;28;20099;-89
2023/03/20 04:03:39;;;;;;;23.45;11.65;;;;;;;10.50;88.68;100235.00;4997996;28;20497;-88
2023/03/20 04:06:08;;;;;;;20.73;11.30;;;;;;;10.60;88.18;100239.44;4979577;28;20556;-88
2023/03/20 04:08:35;;;;;;;24.15;11.25;;;;;;;10.57;89.15;100237.03;4946690;28;20046;-89
2023/03/20 04:11:02;;;;;;;24.83;11.55;;;;;;;10.61;88.67;100235.81;5013685;28;20060;-89
2023/03/20 04:13:29;;;;;;;19.92;10.20;;;;;;;10.66;88.66;100240.75;4978945;28;20382;-88
2023/03/20 04:15:56;;;;;;;22.40;10.45;;;;;;;10.66;88.75;100235.44;5013316;28;20045;-87
2023/03/20 04:18:25;;;;;;;23.90;11.00;;;;;;;10.72;88.59;100232.28;4996477;28;20072;-88
2023/03/20 04:20:53;;;;;;;20.50;9.90;;;;;;;10.70;88.67;100234.19;4996798;28;20060;-88
2023/03/20 04:23:20;;;;;;;21.20;10.05;;;;;;;10.72;88.55;100234.94;5009249;28;20120;-88
2023/03/20 04:25:48;;;;;;;24.23;10.48;;;;;;;10.72;88.82;100237.59;4996699;28;20072;-87
2023/03/20 04:28:15;;;;;;;20.58;9.95;;;;;;;10.75;88.89;100245.28;5033887;28;20049;-84
2023/03/20 04:31:06;;;;;;;20.10;9.30;;;;;;;10.73;89.09;100241.06;4940025;28;20041;-83
2023/03/20 04:33:41;;;;;;;19.50;8.75;;;;;;;10.76;89.02;100248.78;4977962;28;20046;-88
2023/03/20 04:36:27;;;;;;;19.02;8.10;;;;;;;10.76;88.92;100248.78;5004439;28;20124;-87
2023/03/20 04:38:55;;;;;;;23.50;10.30;;;;;;;10.79;88.76;100257.38;4998872;28;20049;-88
2023/03/20 04:41:31;;;;;;;19.73;9.48;;;;;;;10.72;89.25;100258.00;5012926;28;20041;-88
2023/03/20 04:43:58;;;;;;;20.23;9.48;;;;;;;10.80;88.74;100263.50;4992198;28;20472;-86
2023/03/20 04:46:25;;;;;;;19.25;9.77;;;;;;;10.80;88.75;100263.50;5003304;28;20053;-88
2023/03/20 04:48:52;;;;;;;21.17;9.38;;;;;;;10.80;88.74;100259.03;5002834;28;20136;-88
2023/03/20 04:51:19;;;;;;;18.70;9.85;;;;;;;10.80;88.37;100263.50;5007684;28;20041;-88
2023/03/20 04:53:51;;;;;;;18.67;8.88;;;;;;;10.78;88.93;100265.44;5003222;28;20441;-88
2023/03/20 04:56:20;;;;;;;19.95;9.90;;;;;;;10.77;88.99;100271.75;5007141;28;20052;-88
2023/03/20 04:58:51;;;;;;;18.67;9.52;;;;;;;10.75;89.19;100269.19;4929667;28;20053;-85
2023/03/20 05:01:21;;;;;;;19.98;9.70;;;;;;;10.79;88.98;100275.13;4992467;28;20201;-84
2023/03/20 05:03:48;;;;;;;17.25;8.90;;;;;;;10.76;89.25;100273.56;5008229;28;20045;-84
2023/03/20 05:06:15;;;;;;;20.73;9.40;;;;;;;10.75;89.25;100266.53;4987759;28;20053;-85
2023/03/20 05:08:43;;;;;;;16.55;8.38;;;;;;;10.72;89.72;100269.47;4985527;28;20095;-85
2023/03/20 05:11:10;;;;;;;17.58;8.57;;;;;;;10.74;89.71;100269.34;5000025;28;20049;-84
2023/03/20 05:13:53;;;;;;;19.77;8.80;;;;;;;10.71;89.92;100265.13;4987516;28;20045;-85
2023/03/20 05:16:38;;;;;;;18.23;9.80;;;;;;;10.77;89.73;100263.78;4942461;28;20739;-86
2023/03/20 05:19:20;;;;;;;20.67;10.52;;;;;;;10.73;89.99;100265.81;4968768;28;20068;-84
2023/03/20 05:22:06;;;;;;;18.70;10.05;;;;;;;10.75;89.62;100268.38;4964897;28;20044;-85
2023/03/20 05:24:45;;;;;;;19.00;9.63;;;;;;;10.75;89.80;100276.31;4977558;28;20052;-84
2023/03/20 05:27:30;;;;;;;18.73;8.18;;;;;;;10.73;89.93;100273.78;4993904;28;20129;-85
2023/03/20 05:30:07;;;;;;;20.17;9.60;;;;;;;10.77;89.81;100277.06;4986370;28;20524;-83
2023/03/20 05:33:09;;;;;;;16.45;8.80;;;;;;;10.74;90.18;100275.50;4942005;28;20046;-85
2023/03/20 05:35:49;;;;;;;15.25;7.55;;;;;;;10.73;90.21;100279.09;4986875;28;20060;-85
2023/03/20 05:38:25;;;;;;;16.30;8.50;;;;;;;10.71;90.86;100290.81;4981594;28;20039;-85
2023/03/20 05:41:02;;;;;;;15.32;7.80;;;;;;;10.72;90.42;100290.72;4978997;28;20048;-85
2023/03/20 05:44:00;;;;;;;17.13;8.57;;;;;;;10.71;90.39;100291.69;4975191;28;20050;-85
2023/03/20 05:46:46;;;;;;;14.27;7.93;;;;;;;10.76;90.10;100297.47;5002187;28;20065;-84
2023/03/20 05:49:19;;;;;;;12.75;7.10;;;;;;;10.73;90.50;100303.00;5003225;28;20045;-84
2023/03/20 05:52:05;;;;;;;13.60;7.60;;;;;;;10.75;90.32;100297.59;4977773;28;20409;-84
2023/03/20 05:54:57;;;;;;;17.05;7.82;;;;;;;10.70;91.10;100300.59;4959524;28;20049;-84
2023/03/20 05:57:39;;;;;;;18.15;8.23;;;;;;;10.69;91.14;100301.59;4969871;28;20517;-84
2023/03/20 06:00:41;;;;;;;13.88;8.00;;;;;;;10.73;91.12;100296.84;4960451;28;20061;-85
2023/03/20 06:03:42;;;;;;;14.95;7.45;;;;;;;10.74;91.15;100291.44;4985208;28;20049;-85
2023/03/20 06:06:14;;;;;;;14.05;7.97;;;;;;;10.75;90.85;100295.75;5007981;28;20416;-85
2023/03/20 06:08:45;;;;;;;16.58;8.05;;;;;;;10.78;90.65;100300.81;5009089;28;20053;-84
2023/03/20 06:11:13;;;;;;;17.88;9.45;;;;;;;10.83;90.16;100303.09;4984429;28;20057;-84
2023/03/20 06:13:40;;;;;;;23.52;10.80;;;;;;;10.78;90.80;100287.53;4995262;28;20128;-84
2023/03/20 06:16:07;;;;;;;17.45;9.90;;;;;;;10.81;90.71;100292.63;4993258;28;20368;-85
2023/03/20 06:18:35;;;;;;;19.88;9.95;;;;;;;10.86;90.22;100303.72;5015197;28;20051;-84
2023/03/20 06:21:04;;;;;;;15.68;10.50;;;;;;;10.85;90.44;100298.50;5026874;28;20459;-84
2023/03/20 06:23:31;;;;;;;18.48;10.95;;;;;;;10.84;90.98;100291.53;5001879;28;20062;-84
2023/03/20 06:26:00;;;;;;;18.10;10.13;;;;;;;10.88;90.57;100297.41;4991006;28;20042;-83
2023/03/20 06:28:30;;;;;;;18.30;10.60;;;;;;;10.85;91.25;100288.72;5006183;28;20042;-85
2023/03/20 06:31:05;;;;;;;20.30;11.70;;;;;;;10.89;90.77;100291.13;4980503;28;20913;-84
2023/03/20 06:33:33;;;;;;;19.80;11.38;;;;;;;10.89;90.63;100288.47;4998977;28;20053;-84
2023/03/20 06:36:01;;;;;;;18.45;11.05;;;;;;;10.91;90.75;100287.38;4979712;28;20128;-85
2023/03/20 06:38:30;;;;;;;20.95;12.60;;;;;;;10.91;90.61;100291.84;4992464;28;20045;-85
2023/03/20 06:41:01;;;;;;;25.88;12.45;;;;;;;10.97;90.39;100302.81;4968073;28;20057;-85
2023/03/20 06:43:28;;;;;;;20.45;12.02;;;;;;;11.00;90.39;100302.56;4992798;28;20583;-84
2023/03/20 06:45:55;;;;;;;15.10;9.82;;;;;;;11.02;90.47;100305.94;5006578;28;20045;-84
2023/03/20 06:48:25;;;;;;;16.58;9.43;;;;;;;11.00;90.77;100310.53;4968455;28;20464;-84
2023/03/20 06:50:52;;;;;;;19.33;10.20;;;;;;;11.04;90.35;100324.41;5006949;28;20128;-85
2023/03/20 06:53:22;;;;;;;17.80;9.70;;;;;;;11.03;90.24;100328.03;5008861;28;20049;-84
2023/03/20 06:56:21;;;;;;;16.10;9.82;;;;;;;11.03;90.57;100331.53;4944840;28;20181;-85
2023/03/20 06:58:48;;;;;;;13.88;9.40;;;;;;;11.06;89.94;100338.41;5014755;28;20092;-84
2023/03/20 07:01:16;;;;;;;16.17;9.63;;;;;;;11.05;90.08;100336.72;5000452;28;20092;-83
2023/03/20 07:03:43;;;;;;;17.20;11.07;;;;;;;11.06;89.91;100328.63;5006229;28;20087;-85
2023/03/20 07:06:11;;;;;;;16.58;10.88;;;;;;;11.12;89.55;100329.94;4992222;28;20038;-84
2023/03/20 07:08:38;;;;;;;18.85;12.05;;;;;;;11.13;89.47;100326.31;4993551;28;20061;-84
2023/03/20 07:11:06;;;;;;;21.17;13.15;;;;;;;11.17;88.86;100338.38;4967850;28;20056;-85
2023/03/20 07:13:33;;;;;;;19.05;12.43;;;;;;;11.18;88.32;100337.41;4983513;28;20041;-84
2023/03/20 07:16:09;;;;;;;18.65;11.95;;;;;;;11.16;88.59;100338.50;4975901;28;20050;-85
2023/03/20 07:18:39;;;;;;;20.80;12.73;;;;;;;11.15;88.87;100339.47;4994854;28;20124;-84
2023/03/20 07:21:06;;;;;;;18.05;12.50;;;;;;;11.16;88.63;100331.34;4990234;28;20612;-85
2023/03/20 07:23:34;;;;;;;21.27;12.70;;;;;;;11.19;88.90;100330.25;5003473;28;20049;-85
2023/03/20 07:26:02;;;;;;;18.15;12.00;;;;;;;11.21;88.47;100336.31;4989513;28;20116;-84
2023/03/20 07:28:29;;;;;;;20.73;12.95;;;;;;;11.22;88.35;100338.84;4988790;28;20493;-84
2023/03/20 07:31:18;;;;;;;23.48;14.25;;;;;;;11.13;89.21;100336.94;4973180;28;20053;-85
2023/03/20 07:33:47;;;;;;;20.98;13.48;;;;;;;11.25;88.69;100337.75;4918126;28;20049;-85
2023/03/20 07:36:14;;;;;;;22.10;13.00;;;;;;;11.28;88.51;100330.34;4980362;28;20056;-84
2023/03/20 07:38:41;;;;;;;23.00;12.30;;;;;;;11.30;88.32;100332.88;4995147;28;20736;-84
2023/03/20 07:41:09;;;;;;;23.67;13.95;;;;;;;11.31;88.09;100329.25;4997909;28;20037;-85
2023/03/20 07:43:39;;;;;;;19.42;12.57;;;;;;;11.30;88.15;100333.72;5005717;28;20038;-84
2023/03/20 07:46:24;;;;;;;23.75;13.43;;;;;;;11.25;88.41;100335.94;4953947;28;20036;-84
2023/03/20 07:48:52;;;;;;;21.60;12.73;;;;;;;11.27;87.75;100333.13;4979176;28;20137;-85
2023/03/20 07:51:19;;;;;;;19.70;11.63;;;;;;;11.27;87.34;100339.31;4982910;28;20053;-84
2023/03/20 07:53:45;;;;;;;21.35;12.43;;;;;;;11.27;87.21;100344.63;5013577;28;20046;-85
2023/03/20 07:56:12;;;;;;;23.73;13.07;;;;;;;11.26;87.39;100348.22;4988609;28;20049;-85
2023/03/20 07:58:39;;;;;;;22.27;12.77;;;;;;;11.27;87.18;100354.38;5002809;28;20041;-85
2023/03/20 08:01:06;;;;;;;21.95;11.95;;;;;;;11.25;87.15;100353.69;5000871;28;20069;-85
2023/03/20 08:03:33;;;;;;;20.60;12.20;;;;;;;11.27;87.04;100354.38;4994703;28;20050;-85
2023/03/20 08:06:00;;;;;;;23.50;12.63;;;;;;;11.30;86.79;100354.16;4996398;28;20045;-84
2023/03/20 08:08:27;;;;;;;26.50;14.07;;;;;;;11.29;86.77;100349.78;5003870;28;20068;-85
2023/03/20 08:10:54;;;;;;;28.90;14.18;;;;;;;11.33;86.27;100343.25;5001200;28;20058;-85
2023/03/20 08:13:21;;;;;;;27.58;14.13;;;;;;;11.34;86.34;100326.31;4989073;28;20053;-84
2023/03/20 08:15:47;;;;;;;26.55;13.40;;;;;;;11.35;86.51;100335.13;5004261;28;20065;-84
2023/03/20 08:18:14;;;;;;;24.33;13.13;;;;;;;11.37;86.60;100327.88;4997727;28;20041;-84
2023/03/20 08:20:41;;;;;;;25.17;13.40;;;;;;;11.39;86.52;100336.56;4984103;28;20133;-85
2023/03/20 08:23:08;;;;;;;25.55;13.93;;;;;;;11.39;86.03;100345.41;4983025;28;20379;-84
2023/03/20 08:25:35;;;;;;;27.00;13.88;;;;;;;11.37;85.51;100346.50;4994456;28;20041;-85
2023/03/20 08:28:02;;;;;;;24.50;14.25;;;;;;;11.39;85.48;100347.22;5022124;28;20045;-84
2023/03/20 08:30:29;;;;;;;29.58;15.27;;;;;;;11.38;85.65;100341.06;5025096;28;20053;-84
2023/03/20 08:32:57;;;;;;;30.10;14.98;;;;;;;11.39;85.75;100349.88;4981420;28;20041;-85
2023/03/20 08:35:24;;;;;;;31.55;16.63;;;;;;;11.39;85.71;100358.69;5004787;28;20096;-85
2023/03/20 08:37:58;;;;;;;31.63;16.42;;;;;;;11.38;85.69;100356.19;4969282;28;20548;-84
2023/03/20 08:40:25;;;;;;;29.33;15.77;;;;;;;11.41;85.47;100353.25;4990598;28;20124;-85
2023/03/20 08:42:52;;;;;;;27.48;14.73;;;;;;;11.43;85.79;100368.09;5007986;28;20042;-84
2023/03/20 08:45:19;;;;;;;32.45;15.27;;;;;;;11.42;85.15;100370.88;5027384;28;20048;-85
2023/03/20 08:47:49;;;;;;;32.00;15.98;;;;;;;11.41;85.25;100363.88;4993853;28;20046;-85
2023/03/20 08:50:15;;;;;;;34.35;16.70;;;;;;;11.44;85.27;100359.16;4991834;28;20124;-85
2023/03/20 08:52:43;;;;;;;30.98;16.42;;;;;;;11.44;85.41;100364.47;4994966;28;20068;-85
2023/03/20 08:55:10;;;;;;;33.13;17.85;;;;;;;11.45;85.21;100363.50;4994518;28;20045;-85
2023/03/20 08:57:37;;;;;;;36.53;17.63;;;;;;;11.45;85.37;100360.00;5006130;28;20045;-85
2023/03/20 09:00:05;;;;;;;35.97;17.35;;;;;;;11.46;85.48;100361.69;4999507;28;20034;-85
2023/03/20 09:02:32;;;;;;;38.83;19.02;;;;;;;11.46;85.42;100369.66;5006224;28;20087;-85
2023/03/20 09:05:00;;;;;;;36.63;19.48;;;;;;;11.44;85.70;100375.09;5008873;28;20056;-85
2023/03/20 09:07:27;;;;;;;36.70;18.13;;;;;;;11.46;85.50;100377.66;5018991;28;20069;-85
2023/03/20 09:09:53;;;;;;;32.70;17.05;;;;;;;11.42;85.85;100366.44;5029774;28;20547;-84
2023/03/20 09:12:20;;;;;;;34.10;17.02;;;;;;;11.45;85.70;100375.97;5006687;28;20052;-85
2023/03/20 09:14:47;;;;;;;33.33;17.02;;;;;;;11.47;85.83;100374.88;5019386;28;20501;-85
2023/03/20 09:17:14;;;;;;;35.53;18.65;;;;;;;11.49;85.74;100372.06;5010282;28;20045;-85
2023/03/20 09:19:43;;;;;;;34.63;17.40;;;;;;;11.52;85.24;100372.66;5023689;28;20041;-85
2023/03/20 09:22:14;;;;;;;38.33;18.73;;;;;;;11.50;84.98;100377.28;4994270;28;20847;-85
2023/03/20 09:24:40;;;;;;;41.00;20.42;;;;;;;11.54;84.89;100390.31;5003777;28;20480;-85
2023/03/20 09:27:07;;;;;;;34.40;18.13;;;;;;;11.55;84.99;100394.63;5002151;28;20041;-85
2023/03/20 09:29:35;;;;;;;36.75;18.05;;;;;;;11.55;84.81;100394.63;5006224;28;20069;-84
2023/03/20 09:32:02;;;;;;;40.42;20.30;;;;;;;11.52;84.80;100385.97;5007263;28;20038;-85
2023/03/20 09:34:28;;;;;;;44.22;20.92;;;;;;;11.50;84.86;100382.59;4995095;28;20062;-86
2023/03/20 09:36:56;;;;;;;46.08;21.02;;;;;;;11.52;84.64;100390.41;5006691;28;22763;-85
2023/03/20 09:39:22;;;;;;;41.60;20.83;;;;;;;11.51;84.62;100391.41;4999429;28;20041;-85
2023/03/20 09:41:50;;;;;;;43.20;21.45;;;;;;;11.51;84.82;100394.06;5022080;28;20781;-85
2023/03/20 09:44:44;;;;;;;44.15;20.42;;;;;;;11.45;84.68;100395.41;4968567;28;20042;-86
2023/03/20 09:47:17;;;;;;;44.83;20.10;;;;;;;11.50;84.87;100395.88;4986699;28;20046;-85
2023/03/20 09:50:22;;;;;;;49.08;22.33;;;;;;;11.44;84.98;100396.38;5032274;28;20086;-85
2023/03/20 09:52:56;;;;;;;48.88;21.77;;;;;;;11.50;84.86;100403.88;4961258;28;20045;-84
2023/03/20 09:55:29;;;;;;;48.05;21.02;;;;;;;11.50;84.87;100405.69;5021293;28;20053;-85
2023/03/20 09:57:56;;;;;;;;;;;;;;;11.35;85.72;100402.47;5020787;28;20049;-85
2023/03/20 10:00:27;;;;;;;47.13;19.00;;;;;;;11.47;84.71;100403.25;4988361;28;19925;-85
2023/03/20 10:03:05;;;;;;;49.78;21.00;;;;;;;11.44;84.94;100401.69;4994841;28;20425;-85
2023/03/20 10:05:44;;;;;;;46.90;22.00;;;;;;;11.41;84.90;100398.47;4983053;28;20104;-85
2023/03/20 10:08:15;;;;;;;42.95;20.60;;;;;;;11.46;84.86;100402.41;4993375;28;20400;-85
2023/03/20 10:10:50;;;;;;;41.92;22.05;;;;;;;11.46;84.75;100401.56;4990852;28;20046;-85
2023/03/20 10:13:35;;;;;;;47.80;21.70;;;;;;;11.42;85.02;100408.13;4970628;28;20054;-85
2023/03/20 10:16:39;;;;;;;44.33;20.42;;;;;;;11.40;84.77;100402.94;4986053;28;20088;-85
2023/03/20 10:19:30;;;;;;;49.47;21.65;;;;;;;11.41;84.98;100398.47;4989471;28;20048;-85
2023/03/20 10:22:24;;;;;;;45.78;20.58;;;;;;;11.38;85.07;100407.53;4977385;28;20053;-85
2023/03/20 10:24:54;;;;;;;;;;;;;;;11.33;85.70;100407.06;4981512;28;20049;-85
2023/03/20 10:27:26;;;;;;;41.70;18.58;;;;;;;11.46;84.93;100399.75;4996029;28;20287;-85
2023/03/20 10:30:29;;;;;;;43.20;21.02;;;;;;;11.44;85.29;100403.50;4995052;28;20058;-85
2023/03/20 10:32:58;;;;;;;45.65;19.15;;;;;;;11.56;84.97;100404.31;4916979;28;20046;-85
2023/03/20 10:35:53;;;;;;;43.55;19.70;;;;;;;11.50;84.76;100405.69;5012759;28;20050;-85
2023/03/20 10:38:35;;;;;;;45.20;19.05;;;;;;;11.45;84.59;100394.59;4971412;28;20049;-85
2023/03/20 10:41:03;;;;;;;41.70;19.80;;;;;;;11.48;84.36;100397.81;5004174;28;20070;-85
2023/03/20 10:43:33;;;;;;;38.25;17.75;;;;;;;11.49;84.50;100401.31;5005541;28;20076;-85
2023/03/20 10:46:12;;;;;;;35.03;16.38;;;;;;;11.48;85.08;100397.81;5011848;28;20044;-85
2023/03/20 10:48:44;;;;;;;33.60;16.33;;;;;;;11.52;84.98;100396.59;5009443;28;20099;-85
2023/03/20 10:51:17;;;;;;;34.90;15.65;;;;;;;11.51;84.75;100397.56;5015463;28;20044;-85
2023/03/20 10:53:51;;;;;;;30.08;14.10;;;;;;;11.53;84.23;100392.13;4989774;28;20051;-85
2023/03/20 10:56:30;;;;;;;34.33;14.63;;;;;;;11.58;84.78;100389.09;5000356;28;20041;-85
2023/03/20 10:59:02;;;;;;;28.08;13.23;;;;;;;11.59;84.53;100386.28;4984753;28;20054;-85
2023/03/20 11:01:29;;;;;;;30.15;13.50;;;;;;;11.61;84.70;100388.81;5022440;28;20125;-85
2023/03/20 11:03:56;;;;;;;30.35;11.88;;;;;;;11.66;84.63;100387.47;4975766;28;20045;-85
2023/03/20 11:06:27;;;;;;;29.33;12.32;;;;;;;11.69;83.96;100389.00;5017110;28;20049;-85
2023/03/20 11:08:54;;;;;;;28.10;12.52;;;;;;;11.69;84.09;100387.19;4973888;28;20150;-85
2023/03/20 11:11:26;;;;;;;29.50;12.77;;;;;;;11.74;84.34;100395.63;5017849;28;20050;-85
2023/03/20 11:13:53;;;;;;;33.17;13.93;;;;;;;11.82;84.51;100396.81;5018944;28;20981;-85
2023/03/20 11:16:28;;;;;;;28.65;12.20;;;;;;;11.81;83.71;100395.13;4997582;28;20041;-85
2023/03/20 11:18:55;;;;;;;30.58;11.07;;;;;;;11.88;84.06;100385.66;5024414;28;20049;-85
2023/03/20 11:21:27;;;;;;;28.17;11.57;;;;;;;11.88;84.55;100386.53;5005840;28;20068;-84
2023/03/20 11:23:54;;;;;;;30.65;12.30;;;;;;;11.94;84.53;100386.00;5010106;28;20052;-85
2023/03/20 11:26:31;;;;;;;22.55;10.63;;;;;;;11.94;84.44;100391.31;5005128;28;20053;-85
2023/03/20 11:28:59;;;;;;;23.70;11.10;;;;;;;12.05;84.12;100386.88;5001146;28;20056;-85
2023/03/20 11:31:37;;;;;;;23.60;11.05;;;;;;;11.95;83.99;100376.19;5007033;28;20045;-85
2023/03/20 11:34:12;;;;;;;26.38;11.60;;;;;;;12.10;83.80;100380.19;4988818;28;20049;-85
2023/03/20 11:36:44;;;;;;;23.52;10.43;;;;;;;12.19;82.68;100367.91;4993618;28;20050;-85
2023/03/20 11:39:22;;;;;;;21.15;9.10;;;;;;;12.31;82.91;100368.66;4996412;28;20392;-85